Terminal Aerodrome Forecast
Issued by NWS Sioux Falls, SD

Home | Current Version | Previous Version | Text Only | Print | Product List | Glossary On
Versions: 1 2 3 4 5 6 7 8 9 10 11 12 13 14 15 16 17 18 19 20 21 22 23 24 25 26 27
000
FTUS43 KFSD 221137
TAFFSD
TAF
KFSD 221137Z 2212/2312 12006KT P6SM OVC045
     FM221500 12007KT P6SM OVC025
     FM221800 11009KT P6SM VCSH OVC020
     FM222000 12010KT 3SM -SN OVC015
     FM222200 12009KT 1 1/2SM -SN OVC008
     FM230000 13006KT 3/4SM -SN OVC008
     FM230300 13005KT 3SM -SN OVC008
     FM230600 VRB03KT P6SM OVC008
     FM231100 29006KT P6SM BKN020=

USA.gov is the U.S. government's official web portal to all federal, state and local government web resources and services.